sensor_id;sensor_type;location;lat;lon;timestamp;P1;durP1;ratioP1;P2;durP2;ratioP2
76631;SDS011;65526;48.578;-4.520;2023-02-19T00:01:20;22.80;;;3.53;;
76631;SDS011;65526;48.578;-4.520;2023-02-19T00:03:52;20.00;;;2.35;;
76631;SDS011;65526;48.578;-4.520;2023-02-19T00:06:27;19.80;;;2.45;;
76631;SDS011;65526;48.578;-4.520;2023-02-19T00:09:01;17.05;;;2.17;;
76631;SDS011;65526;48.578;-4.520;2023-02-19T00:11:31;23.80;;;2.70;;
76631;SDS011;65526;48.578;-4.520;2023-02-19T00:14:01;18.63;;;2.47;;
76631;SDS011;65526;48.578;-4.520;2023-02-19T00:16:29;16.65;;;2.20;;
76631;SDS011;65526;48.578;-4.520;2023-02-19T00:18:58;21.00;;;2.10;;
76631;SDS011;65526;48.578;-4.520;2023-02-19T00:21:25;21.45;;;2.20;;
76631;SDS011;65526;48.578;-4.520;2023-02-19T00:23:54;25.50;;;2.45;;
76631;SDS011;65526;48.578;-4.520;2023-02-19T00:26:23;16.40;;;1.83;;
76631;SDS011;65526;48.578;-4.520;2023-02-19T00:28:50;21.52;;;3.10;;
76631;SDS011;65526;48.578;-4.520;2023-02-19T00:31:20;18.77;;;2.70;;
76631;SDS011;65526;48.578;-4.520;2023-02-19T00:33:52;24.52;;;3.28;;
76631;SDS011;65526;48.578;-4.520;2023-02-19T00:36:21;20.63;;;2.03;;
76631;SDS011;65526;48.578;-4.520;2023-02-19T00:38:49;16.25;;;2.17;;
76631;SDS011;65526;48.578;-4.520;2023-02-19T00:41:17;18.17;;;2.35;;
76631;SDS011;65526;48.578;-4.520;2023-02-19T00:43:46;14.32;;;1.35;;
76631;SDS011;65526;48.578;-4.520;2023-02-19T00:46:13;9.05;;;1.45;;
76631;SDS011;65526;48.578;-4.520;2023-02-19T00:48:51;13.32;;;1.27;;
76631;SDS011;65526;48.578;-4.520;2023-02-19T00:51:18;8.65;;;1.00;;
76631;SDS011;65526;48.578;-4.520;2023-02-19T00:53:46;4.82;;;0.77;;
76631;SDS011;65526;48.578;-4.520;2023-02-19T00:56:13;4.68;;;0.65;;
76631;SDS011;65526;48.578;-4.520;2023-02-19T00:58:40;5.85;;;0.88;;
76631;SDS011;65526;48.578;-4.520;2023-02-19T01:01:07;7.25;;;0.88;;
76631;SDS011;65526;48.578;-4.520;2023-02-19T01:03:35;11.63;;;1.48;;
76631;SDS011;65526;48.578;-4.520;2023-02-19T01:06:02;11.48;;;1.45;;
76631;SDS011;65526;48.578;-4.520;2023-02-19T01:08:30;11.35;;;1.65;;
76631;SDS011;65526;48.578;-4.520;2023-02-19T01:11:00;15.98;;;1.77;;
76631;SDS011;65526;48.578;-4.520;2023-02-19T01:13:28;16.52;;;4.07;;
76631;SDS011;65526;48.578;-4.520;2023-02-19T01:16:09;11.45;;;1.40;;
76631;SDS011;65526;48.578;-4.520;2023-02-19T01:18:40;8.43;;;2.30;;
76631;SDS011;65526;48.578;-4.520;2023-02-19T01:21:08;11.15;;;1.20;;
76631;SDS011;65526;48.578;-4.520;2023-02-19T01:23:38;9.45;;;0.80;;
76631;SDS011;65526;48.578;-4.520;2023-02-19T01:26:06;11.45;;;1.30;;
76631;SDS011;65526;48.578;-4.520;2023-02-19T01:28:34;7.00;;;1.02;;
76631;SDS011;65526;48.578;-4.520;2023-02-19T01:31:04;13.50;;;1.98;;
76631;SDS011;65526;48.578;-4.520;2023-02-19T01:33:32;5.35;;;1.27;;
76631;SDS011;65526;48.578;-4.520;2023-02-19T01:36:01;7.10;;;0.80;;
76631;SDS011;65526;48.578;-4.520;2023-02-19T01:38:29;9.30;;;0.95;;
76631;SDS011;65526;48.578;-4.520;2023-02-19T01:40:56;8.05;;;0.70;;
76631;SDS011;65526;48.578;-4.520;2023-02-19T01:43:24;10.48;;;0.98;;
76631;SDS011;65526;48.578;-4.520;2023-02-19T01:45:51;17.15;;;1.67;;
76631;SDS011;65526;48.578;-4.520;2023-02-19T01:48:29;12.48;;;1.55;;
76631;SDS011;65526;48.578;-4.520;2023-02-19T01:51:01;13.77;;;2.42;;
76631;SDS011;65526;48.578;-4.520;2023-02-19T01:53:36;13.95;;;1.63;;
76631;SDS011;65526;48.578;-4.520;2023-02-19T01:56:06;18.00;;;1.85;;
76631;SDS011;65526;48.578;-4.520;2023-02-19T01:58:34;13.20;;;1.92;;
76631;SDS011;65526;48.578;-4.520;2023-02-19T02:01:03;12.48;;;1.40;;
76631;SDS011;65526;48.578;-4.520;2023-02-19T02:03:32;11.27;;;1.35;;
76631;SDS011;65526;48.578;-4.520;2023-02-19T02:06:03;20.85;;;1.98;;
76631;SDS011;65526;48.578;-4.520;2023-02-19T02:08:34;16.80;;;1.75;;
76631;SDS011;65526;48.578;-4.520;2023-02-19T02:11:20;15.48;;;1.52;;
76631;SDS011;65526;48.578;-4.520;2023-02-19T02:13:47;11.80;;;1.48;;
76631;SDS011;65526;48.578;-4.520;2023-02-19T02:16:22;11.75;;;1.27;;
76631;SDS011;65526;48.578;-4.520;2023-02-19T02:19:14;8.18;;;1.23;;
76631;SDS011;65526;48.578;-4.520;2023-02-19T02:22:17;7.72;;;2.45;;
76631;SDS011;65526;48.578;-4.520;2023-02-19T02:24:52;13.23;;;2.33;;
76631;SDS011;65526;48.578;-4.520;2023-02-19T02:27:27;13.73;;;1.55;;
76631;SDS011;65526;48.578;-4.520;2023-02-19T02:33:20;11.07;;;1.40;;
76631;SDS011;65526;48.578;-4.520;2023-02-19T02:36:20;15.50;;;2.45;;
76631;SDS011;65526;48.578;-4.520;2023-02-19T02:38:47;9.07;;;2.05;;
76631;SDS011;65526;48.578;-4.520;2023-02-19T02:41:15;15.32;;;3.35;;
76631;SDS011;65526;48.578;-4.520;2023-02-19T02:43:41;12.10;;;1.35;;
76631;SDS011;65526;48.578;-4.520;2023-02-19T02:46:11;9.98;;;1.02;;
76631;SDS011;65526;48.578;-4.520;2023-02-19T02:48:44;11.57;;;3.15;;
76631;SDS011;65526;48.578;-4.520;2023-02-19T02:51:37;8.68;;;1.27;;
76631;SDS011;65526;48.578;-4.520;2023-02-19T02:54:32;11.50;;;1.63;;
76631;SDS011;65526;48.578;-4.520;2023-02-19T02:57:20;9.77;;;1.65;;
76631;SDS011;65526;48.578;-4.520;2023-02-19T02:59:51;16.90;;;2.65;;
76631;SDS011;65526;48.578;-4.520;2023-02-19T03:02:25;10.55;;;1.55;;
76631;SDS011;65526;48.578;-4.520;2023-02-19T03:05:11;13.02;;;1.73;;
76631;SDS011;65526;48.578;-4.520;2023-02-19T03:08:21;12.02;;;1.45;;
76631;SDS011;65526;48.578;-4.520;2023-02-19T03:11:10;12.80;;;1.38;;
76631;SDS011;65526;48.578;-4.520;2023-02-19T03:14:19;12.48;;;1.23;;
76631;SDS011;65526;48.578;-4.520;2023-02-19T03:17:09;11.48;;;1.23;;
76631;SDS011;65526;48.578;-4.520;2023-02-19T03:20:00;12.88;;;1.80;;
76631;SDS011;65526;48.578;-4.520;2023-02-19T03:22:33;14.40;;;1.20;;
76631;SDS011;65526;48.578;-4.520;2023-02-19T03:27:58;10.93;;;1.73;;
76631;SDS011;65526;48.578;-4.520;2023-02-19T03:30:33;17.25;;;1.20;;
76631;SDS011;65526;48.578;-4.520;2023-02-19T03:35:57;14.30;;;1.20;;
76631;SDS011;65526;48.578;-4.520;2023-02-19T03:38:39;10.68;;;0.93;;
76631;SDS011;65526;48.578;-4.520;2023-02-19T03:41:26;11.65;;;1.45;;
76631;SDS011;65526;48.578;-4.520;2023-02-19T03:46:36;11.80;;;1.52;;
76631;SDS011;65526;48.578;-4.520;2023-02-19T03:49:15;9.13;;;1.15;;
76631;SDS011;65526;48.578;-4.520;2023-02-19T03:51:50;19.65;;;1.33;;
76631;SDS011;65526;48.578;-4.520;2023-02-19T03:57:17;9.35;;;2.03;;
76631;SDS011;65526;48.578;-4.520;2023-02-19T03:59:52;8.02;;;1.23;;
76631;SDS011;65526;48.578;-4.520;2023-02-19T04:02:40;15.43;;;1.30;;
76631;SDS011;65526;48.578;-4.520;2023-02-19T04:05:16;5.30;;;1.30;;
76631;SDS011;65526;48.578;-4.520;2023-02-19T04:07:46;8.60;;;1.23;;
76631;SDS011;65526;48.578;-4.520;2023-02-19T04:10:20;11.95;;;1.10;;
76631;SDS011;65526;48.578;-4.520;2023-02-19T04:13:01;8.45;;;1.60;;
76631;SDS011;65526;48.578;-4.520;2023-02-19T04:15:32;12.52;;;1.50;;
76631;SDS011;65526;48.578;-4.520;2023-02-19T04:18:04;10.23;;;1.17;;
76631;SDS011;65526;48.578;-4.520;2023-02-19T04:20:38;10.27;;;1.15;;
76631;SDS011;65526;48.578;-4.520;2023-02-19T04:23:08;11.75;;;1.05;;
76631;SDS011;65526;48.578;-4.520;2023-02-19T04:25:37;11.50;;;2.05;;
76631;SDS011;65526;48.578;-4.520;2023-02-19T04:28:06;11.70;;;2.58;;
76631;SDS011;65526;48.578;-4.520;2023-02-19T04:30:34;11.70;;;1.02;;
76631;SDS011;65526;48.578;-4.520;2023-02-19T04:33:00;9.55;;;1.02;;
76631;SDS011;65526;48.578;-4.520;2023-02-19T04:35:27;9.65;;;1.67;;
76631;SDS011;65526;48.578;-4.520;2023-02-19T04:37:53;6.80;;;0.98;;
76631;SDS011;65526;48.578;-4.520;2023-02-19T04:40:19;13.77;;;2.35;;
76631;SDS011;65526;48.578;-4.520;2023-02-19T04:42:46;9.52;;;1.20;;
76631;SDS011;65526;48.578;-4.520;2023-02-19T04:45:12;10.82;;;1.10;;
76631;SDS011;65526;48.578;-4.520;2023-02-19T04:47:39;7.72;;;1.38;;
76631;SDS011;65526;48.578;-4.520;2023-02-19T04:50:05;8.10;;;1.02;;
76631;SDS011;65526;48.578;-4.520;2023-02-19T04:52:32;5.00;;;0.80;;
76631;SDS011;65526;48.578;-4.520;2023-02-19T04:54:59;6.63;;;0.90;;
76631;SDS011;65526;48.578;-4.520;2023-02-19T04:57:25;9.00;;;1.70;;
76631;SDS011;65526;48.578;-4.520;2023-02-19T04:59:52;4.60;;;0.70;;
76631;SDS011;65526;48.578;-4.520;2023-02-19T05:02:18;3.25;;;0.82;;
76631;SDS011;65526;48.578;-4.520;2023-02-19T05:04:45;4.85;;;0.93;;
76631;SDS011;65526;48.578;-4.520;2023-02-19T05:07:23;8.30;;;0.73;;
76631;SDS011;65526;48.578;-4.520;2023-02-19T05:09:59;8.55;;;0.77;;
76631;SDS011;65526;48.578;-4.520;2023-02-19T05:12:25;9.07;;;0.93;;
76631;SDS011;65526;48.578;-4.520;2023-02-19T05:14:52;10.52;;;1.50;;
76631;SDS011;65526;48.578;-4.520;2023-02-19T05:17:18;13.07;;;2.38;;
76631;SDS011;65526;48.578;-4.520;2023-02-19T05:19:45;4.90;;;1.08;;
76631;SDS011;65526;48.578;-4.520;2023-02-19T05:22:11;6.43;;;0.60;;
76631;SDS011;65526;48.578;-4.520;2023-02-19T05:24:37;6.15;;;0.63;;
76631;SDS011;65526;48.578;-4.520;2023-02-19T05:27:04;7.97;;;0.75;;
76631;SDS011;65526;48.578;-4.520;2023-02-19T05:29:30;6.30;;;0.73;;
76631;SDS011;65526;48.578;-4.520;2023-02-19T05:31:57;4.25;;;0.70;;
76631;SDS011;65526;48.578;-4.520;2023-02-19T05:34:23;5.25;;;1.27;;
76631;SDS011;65526;48.578;-4.520;2023-02-19T05:36:50;11.85;;;1.02;;
76631;SDS011;65526;48.578;-4.520;2023-02-19T05:39:16;9.32;;;1.05;;
76631;SDS011;65526;48.578;-4.520;2023-02-19T05:41:43;9.70;;;1.38;;
76631;SDS011;65526;48.578;-4.520;2023-02-19T05:44:09;3.13;;;0.68;;
76631;SDS011;65526;48.578;-4.520;2023-02-19T05:46:36;5.28;;;0.80;;
76631;SDS011;65526;48.578;-4.520;2023-02-19T05:49:03;9.00;;;1.10;;
76631;SDS011;65526;48.578;-4.520;2023-02-19T05:51:29;5.65;;;0.80;;
76631;SDS011;65526;48.578;-4.520;2023-02-19T05:53:56;7.03;;;0.60;;
76631;SDS011;65526;48.578;-4.520;2023-02-19T05:56:25;5.07;;;0.88;;
76631;SDS011;65526;48.578;-4.520;2023-02-19T05:58:57;4.65;;;1.13;;
76631;SDS011;65526;48.578;-4.520;2023-02-19T06:01:26;4.00;;;0.73;;
76631;SDS011;65526;48.578;-4.520;2023-02-19T06:03:53;9.73;;;0.98;;
76631;SDS011;65526;48.578;-4.520;2023-02-19T06:06:20;5.78;;;0.90;;
76631;SDS011;65526;48.578;-4.520;2023-02-19T06:08:47;10.82;;;0.80;;
76631;SDS011;65526;48.578;-4.520;2023-02-19T06:11:17;6.88;;;0.63;;
76631;SDS011;65526;48.578;-4.520;2023-02-19T06:13:44;6.50;;;1.00;;
76631;SDS011;65526;48.578;-4.520;2023-02-19T06:16:10;8.20;;;1.15;;
76631;SDS011;65526;48.578;-4.520;2023-02-19T06:18:37;3.55;;;0.60;;
76631;SDS011;65526;48.578;-4.520;2023-02-19T06:21:06;8.68;;;1.05;;
76631;SDS011;65526;48.578;-4.520;2023-02-19T06:23:34;7.22;;;0.70;;
76631;SDS011;65526;48.578;-4.520;2023-02-19T06:26:20;5.03;;;0.50;;
76631;SDS011;65526;48.578;-4.520;2023-02-19T06:28:49;5.57;;;1.55;;
76631;SDS011;65526;48.578;-4.520;2023-02-19T06:31:17;5.80;;;0.75;;
76631;SDS011;65526;48.578;-4.520;2023-02-19T06:33:45;5.75;;;0.65;;
76631;SDS011;65526;48.578;-4.520;2023-02-19T06:36:12;4.85;;;0.75;;
76631;SDS011;65526;48.578;-4.520;2023-02-19T06:38:41;7.10;;;0.70;;
76631;SDS011;65526;48.578;-4.520;2023-02-19T06:41:08;4.88;;;0.63;;
76631;SDS011;65526;48.578;-4.520;2023-02-19T06:43:36;8.98;;;1.45;;
76631;SDS011;65526;48.578;-4.520;2023-02-19T06:46:03;12.13;;;0.95;;
76631;SDS011;65526;48.578;-4.520;2023-02-19T06:48:31;6.85;;;1.05;;
76631;SDS011;65526;48.578;-4.520;2023-02-19T06:50:58;10.90;;;1.10;;
76631;SDS011;65526;48.578;-4.520;2023-02-19T06:53:25;6.28;;;0.85;;
76631;SDS011;65526;48.578;-4.520;2023-02-19T06:55:58;7.78;;;0.88;;
76631;SDS011;65526;48.578;-4.520;2023-02-19T06:58:26;3.35;;;0.50;;
76631;SDS011;65526;48.578;-4.520;2023-02-19T07:00:52;7.20;;;0.77;;
76631;SDS011;65526;48.578;-4.520;2023-02-19T07:03:19;9.95;;;1.60;;
76631;SDS011;65526;48.578;-4.520;2023-02-19T07:05:46;12.68;;;2.15;;
76631;SDS011;65526;48.578;-4.520;2023-02-19T07:08:12;7.70;;;1.08;;
76631;SDS011;65526;48.578;-4.520;2023-02-19T07:10:39;9.63;;;0.98;;
76631;SDS011;65526;48.578;-4.520;2023-02-19T07:13:05;4.40;;;1.10;;
76631;SDS011;65526;48.578;-4.520;2023-02-19T07:15:32;14.00;;;1.95;;
76631;SDS011;65526;48.578;-4.520;2023-02-19T07:17:58;13.75;;;1.30;;
76631;SDS011;65526;48.578;-4.520;2023-02-19T07:20:25;8.80;;;0.73;;
76631;SDS011;65526;48.578;-4.520;2023-02-19T07:22:51;12.00;;;1.83;;
76631;SDS011;65526;48.578;-4.520;2023-02-19T07:25:17;10.93;;;0.80;;
76631;SDS011;65526;48.578;-4.520;2023-02-19T07:27:44;7.30;;;0.95;;
76631;SDS011;65526;48.578;-4.520;2023-02-19T07:30:10;8.38;;;1.63;;
76631;SDS011;65526;48.578;-4.520;2023-02-19T07:32:39;6.45;;;0.90;;
76631;SDS011;65526;48.578;-4.520;2023-02-19T07:35:06;2.78;;;0.70;;
76631;SDS011;65526;48.578;-4.520;2023-02-19T07:37:33;4.78;;;0.70;;
76631;SDS011;65526;48.578;-4.520;2023-02-19T07:39:59;4.30;;;0.52;;
76631;SDS011;65526;48.578;-4.520;2023-02-19T07:42:26;4.75;;;0.63;;
76631;SDS011;65526;48.578;-4.520;2023-02-19T07:44:52;11.70;;;1.35;;
76631;SDS011;65526;48.578;-4.520;2023-02-19T07:47:19;9.23;;;0.75;;
76631;SDS011;65526;48.578;-4.520;2023-02-19T07:49:45;5.75;;;0.73;;
76631;SDS011;65526;48.578;-4.520;2023-02-19T07:52:11;3.17;;;1.10;;
76631;SDS011;65526;48.578;-4.520;2023-02-19T07:54:38;4.93;;;0.47;;
76631;SDS011;65526;48.578;-4.520;2023-02-19T07:57:04;5.75;;;0.30;;
76631;SDS011;65526;48.578;-4.520;2023-02-19T07:59:31;4.82;;;0.60;;
76631;SDS011;65526;48.578;-4.520;2023-02-19T08:01:57;2.60;;;0.40;;
76631;SDS011;65526;48.578;-4.520;2023-02-19T08:04:55;3.58;;;0.60;;
76631;SDS011;65526;48.578;-4.520;2023-02-19T08:07:22;4.10;;;0.30;;
76631;SDS011;65526;48.578;-4.520;2023-02-19T08:09:48;1.85;;;0.30;;
76631;SDS011;65526;48.578;-4.520;2023-02-19T08:12:35;1.83;;;0.30;;
76631;SDS011;65526;48.578;-4.520;2023-02-19T08:15:19;4.40;;;0.30;;
76631;SDS011;65526;48.578;-4.520;2023-02-19T08:17:46;2.90;;;0.30;;
76631;SDS011;65526;48.578;-4.520;2023-02-19T08:20:12;4.18;;;0.60;;
76631;SDS011;65526;48.578;-4.520;2023-02-19T08:22:39;0.80;;;0.30;;
76631;SDS011;65526;48.578;-4.520;2023-02-19T08:25:05;6.25;;;0.47;;
76631;SDS011;65526;48.578;-4.520;2023-02-19T08:27:32;6.57;;;1.05;;
76631;SDS011;65526;48.578;-4.520;2023-02-19T08:29:58;2.13;;;0.60;;
76631;SDS011;65526;48.578;-4.520;2023-02-19T08:32:25;4.93;;;0.40;;
76631;SDS011;65526;48.578;-4.520;2023-02-19T08:34:51;2.88;;;0.80;;
76631;SDS011;65526;48.578;-4.520;2023-02-19T08:37:18;3.30;;;0.50;;
76631;SDS011;65526;48.578;-4.520;2023-02-19T08:39:44;3.65;;;0.40;;
76631;SDS011;65526;48.578;-4.520;2023-02-19T08:42:10;2.92;;;0.70;;
76631;SDS011;65526;48.578;-4.520;2023-02-19T08:44:37;4.60;;;1.08;;
76631;SDS011;65526;48.578;-4.520;2023-02-19T08:47:03;0.95;;;0.20;;
76631;SDS011;65526;48.578;-4.520;2023-02-19T08:49:30;2.05;;;0.20;;
76631;SDS011;65526;48.578;-4.520;2023-02-19T08:51:56;3.90;;;0.63;;
76631;SDS011;65526;48.578;-4.520;2023-02-19T08:54:23;1.02;;;0.20;;
76631;SDS011;65526;48.578;-4.520;2023-02-19T08:56:49;2.13;;;0.15;;
76631;SDS011;65526;48.578;-4.520;2023-02-19T08:59:16;3.40;;;0.43;;
76631;SDS011;65526;48.578;-4.520;2023-02-19T09:01:44;5.57;;;0.43;;
76631;SDS011;65526;48.578;-4.520;2023-02-19T09:04:10;1.67;;;0.20;;
76631;SDS011;65526;48.578;-4.520;2023-02-19T09:06:37;7.68;;;1.55;;
76631;SDS011;65526;48.578;-4.520;2023-02-19T09:09:04;1.70;;;0.30;;
76631;SDS011;65526;48.578;-4.520;2023-02-19T09:11:30;3.03;;;0.35;;
76631;SDS011;65526;48.578;-4.520;2023-02-19T09:13:57;2.80;;;0.30;;
76631;SDS011;65526;48.578;-4.520;2023-02-19T09:16:23;1.13;;;0.20;;
76631;SDS011;65526;48.578;-4.520;2023-02-19T09:18:49;1.95;;;0.30;;
76631;SDS011;65526;48.578;-4.520;2023-02-19T09:21:16;2.65;;;0.40;;
76631;SDS011;65526;48.578;-4.520;2023-02-19T09:23:42;4.55;;;0.40;;
76631;SDS011;65526;48.578;-4.520;2023-02-19T09:26:09;2.13;;;0.40;;
76631;SDS011;65526;48.578;-4.520;2023-02-19T09:28:36;1.10;;;0.43;;
76631;SDS011;65526;48.578;-4.520;2023-02-19T09:31:07;1.15;;;0.57;;
76631;SDS011;65526;48.578;-4.520;2023-02-19T09:33:36;1.55;;;0.35;;
76631;SDS011;65526;48.578;-4.520;2023-02-19T09:36:02;1.38;;;0.45;;
76631;SDS011;65526;48.578;-4.520;2023-02-19T09:38:29;2.78;;;0.75;;
76631;SDS011;65526;48.578;-4.520;2023-02-19T09:40:56;1.80;;;0.43;;
76631;SDS011;65526;48.578;-4.520;2023-02-19T09:43:23;2.88;;;0.20;;
76631;SDS011;65526;48.578;-4.520;2023-02-19T09:45:58;0.32;;;0.10;;
76631;SDS011;65526;48.578;-4.520;2023-02-19T09:48:28;0.75;;;0.30;;
76631;SDS011;65526;48.578;-4.520;2023-02-19T09:50:55;2.47;;;0.50;;
76631;SDS011;65526;48.578;-4.520;2023-02-19T09:53:25;1.52;;;0.30;;
76631;SDS011;65526;48.578;-4.520;2023-02-19T09:55:59;2.50;;;0.30;;
76631;SDS011;65526;48.578;-4.520;2023-02-19T10:00:59;3.30;;;0.88;;
76631;SDS011;65526;48.578;-4.520;2023-02-19T10:03:35;1.92;;;0.77;;
76631;SDS011;65526;48.578;-4.520;2023-02-19T10:06:06;4.15;;;1.25;;
76631;SDS011;65526;48.578;-4.520;2023-02-19T10:08:39;2.28;;;0.60;;
76631;SDS011;65526;48.578;-4.520;2023-02-19T10:11:06;4.43;;;0.90;;
76631;SDS011;65526;48.578;-4.520;2023-02-19T10:13:40;1.10;;;0.50;;
76631;SDS011;65526;48.578;-4.520;2023-02-19T10:16:27;1.10;;;0.45;;
76631;SDS011;65526;48.578;-4.520;2023-02-19T10:18:54;2.50;;;0.70;;
76631;SDS011;65526;48.578;-4.520;2023-02-19T10:21:23;2.17;;;0.32;;
76631;SDS011;65526;48.578;-4.520;2023-02-19T10:23:52;2.72;;;0.52;;
76631;SDS011;65526;48.578;-4.520;2023-02-19T10:26:24;2.30;;;0.63;;
76631;SDS011;65526;48.578;-4.520;2023-02-19T10:28:51;3.60;;;0.70;;
76631;SDS011;65526;48.578;-4.520;2023-02-19T10:31:20;3.90;;;0.82;;
76631;SDS011;65526;48.578;-4.520;2023-02-19T10:33:52;2.28;;;0.50;;
76631;SDS011;65526;48.578;-4.520;2023-02-19T10:36:27;1.88;;;0.35;;
76631;SDS011;65526;48.578;-4.520;2023-02-19T10:39:18;3.65;;;0.52;;
76631;SDS011;65526;48.578;-4.520;2023-02-19T10:41:48;1.13;;;0.50;;
76631;SDS011;65526;48.578;-4.520;2023-02-19T10:47:00;2.13;;;0.75;;
76631;SDS011;65526;48.578;-4.520;2023-02-19T10:49:28;1.70;;;0.77;;
76631;SDS011;65526;48.578;-4.520;2023-02-19T10:52:14;1.63;;;0.45;;
76631;SDS011;65526;48.578;-4.520;2023-02-19T10:54:45;2.63;;;0.70;;
76631;SDS011;65526;48.578;-4.520;2023-02-19T10:59:51;1.83;;;0.70;;
76631;SDS011;65526;48.578;-4.520;2023-02-19T11:02:22;2.50;;;0.40;;
76631;SDS011;65526;48.578;-4.520;2023-02-19T11:07:46;2.13;;;0.60;;
76631;SDS011;65526;48.578;-4.520;2023-02-19T11:13:00;1.90;;;0.50;;
76631;SDS011;65526;48.578;-4.520;2023-02-19T11:15:33;1.73;;;0.50;;
76631;SDS011;65526;48.578;-4.520;2023-02-19T11:18:13;2.00;;;0.60;;
76631;SDS011;65526;48.578;-4.520;2023-02-19T11:20:53;2.25;;;0.60;;
76631;SDS011;65526;48.578;-4.520;2023-02-19T11:23:26;2.33;;;0.52;;
76631;SDS011;65526;48.578;-4.520;2023-02-19T11:25:56;4.32;;;0.60;;
76631;SDS011;65526;48.578;-4.520;2023-02-19T11:28:34;10.45;;;1.05;;
76631;SDS011;65526;48.578;-4.520;2023-02-19T11:34:03;2.72;;;0.60;;
76631;SDS011;65526;48.578;-4.520;2023-02-19T11:36:39;3.70;;;0.55;;
76631;SDS011;65526;48.578;-4.520;2023-02-19T11:44:45;3.88;;;0.75;;
76631;SDS011;65526;48.578;-4.520;2023-02-19T11:49:43;2.70;;;0.40;;
76631;SDS011;65526;48.578;-4.520;2023-02-19T11:52:41;4.80;;;1.45;;
76631;SDS011;65526;48.578;-4.520;2023-02-19T11:55:37;3.88;;;0.40;;
76631;SDS011;65526;48.578;-4.520;2023-02-19T12:10:10;3.88;;;0.52;;
76631;SDS011;65526;48.578;-4.520;2023-02-19T12:15:43;3.65;;;0.70;;
76631;SDS011;65526;48.578;-4.520;2023-02-19T12:26:26;2.53;;;0.60;;
76631;SDS011;65526;48.578;-4.520;2023-02-19T12:29:22;1.30;;;0.63;;
76631;SDS011;65526;48.578;-4.520;2023-02-19T12:37:36;2.50;;;0.30;;
76631;SDS011;65526;48.578;-4.520;2023-02-19T12:48:09;3.72;;;0.52;;
76631;SDS011;65526;48.578;-4.520;2023-02-19T12:50:49;2.10;;;0.25;;
76631;SDS011;65526;48.578;-4.520;2023-02-19T12:53:24;1.17;;;0.20;;
76631;SDS011;65526;48.578;-4.520;2023-02-19T12:56:00;2.83;;;0.40;;
76631;SDS011;65526;48.578;-4.520;2023-02-19T12:58:37;2.30;;;0.55;;
76631;SDS011;65526;48.578;-4.520;2023-02-19T13:01:09;1.05;;;0.40;;
76631;SDS011;65526;48.578;-4.520;2023-02-19T13:03:48;2.40;;;0.30;;
76631;SDS011;65526;48.578;-4.520;2023-02-19T13:06:36;1.83;;;0.25;;
76631;SDS011;65526;48.578;-4.520;2023-02-19T13:09:14;2.28;;;0.20;;
76631;SDS011;65526;48.578;-4.520;2023-02-19T13:11:49;0.95;;;0.35;;
76631;SDS011;65526;48.578;-4.520;2023-02-19T13:14:35;0.98;;;0.20;;
76631;SDS011;65526;48.578;-4.520;2023-02-19T13:17:21;0.63;;;0.30;;
76631;SDS011;65526;48.578;-4.520;2023-02-19T13:20:06;5.45;;;0.60;;
76631;SDS011;65526;48.578;-4.520;2023-02-19T13:22:53;3.05;;;0.30;;
76631;SDS011;65526;48.578;-4.520;2023-02-19T13:29:07;2.20;;;0.45;;
76631;SDS011;65526;48.578;-4.520;2023-02-19T13:34:47;0.20;;;0.20;;
76631;SDS011;65526;48.578;-4.520;2023-02-19T13:37:19;2.88;;;0.28;;
76631;SDS011;65526;48.578;-4.520;2023-02-19T13:39:51;3.53;;;0.30;;
76631;SDS011;65526;48.578;-4.520;2023-02-19T13:42:25;0.32;;;0.13;;
76631;SDS011;65526;48.578;-4.520;2023-02-19T13:44:55;1.08;;;0.25;;
76631;SDS011;65526;48.578;-4.520;2023-02-19T13:50:21;1.42;;;0.20;;
76631;SDS011;65526;48.578;-4.520;2023-02-19T13:52:58;1.80;;;0.30;;
76631;SDS011;65526;48.578;-4.520;2023-02-19T14:01:00;0.77;;;0.30;;
76631;SDS011;65526;48.578;-4.520;2023-02-19T14:05:59;2.38;;;0.20;;
76631;SDS011;65526;48.578;-4.520;2023-02-19T14:08:48;2.53;;;0.38;;
76631;SDS011;65526;48.578;-4.520;2023-02-19T14:12:04;2.58;;;0.30;;
76631;SDS011;65526;48.578;-4.520;2023-02-19T14:14:53;1.95;;;0.30;;
76631;SDS011;65526;48.578;-4.520;2023-02-19T14:17:01;1.33;;;0.20;;
76631;SDS011;65526;48.578;-4.520;2023-02-19T14:19:55;2.17;;;0.30;;
76631;SDS011;65526;48.578;-4.520;2023-02-19T14:28:16;3.15;;;0.35;;
76631;SDS011;65526;48.578;-4.520;2023-02-19T14:30:56;1.13;;;0.20;;
76631;SDS011;65526;48.578;-4.520;2023-02-19T14:33:41;1.70;;;0.40;;
76631;SDS011;65526;48.578;-4.520;2023-02-19T14:38:54;1.58;;;0.20;;
76631;SDS011;65526;48.578;-4.520;2023-02-19T14:41:24;0.80;;;0.10;;
76631;SDS011;65526;48.578;-4.520;2023-02-19T14:43:55;0.32;;;0.10;;
76631;SDS011;65526;48.578;-4.520;2023-02-19T14:46:33;2.58;;;0.38;;
76631;SDS011;65526;48.578;-4.520;2023-02-19T14:49:16;2.15;;;0.20;;
76631;SDS011;65526;48.578;-4.520;2023-02-19T14:51:59;0.38;;;0.30;;
76631;SDS011;65526;48.578;-4.520;2023-02-19T14:54:34;7.65;;;3.55;;
76631;SDS011;65526;48.578;-4.520;2023-02-19T14:57:51;0.55;;;0.20;;
76631;SDS011;65526;48.578;-4.520;2023-02-19T15:02:47;2.58;;;0.98;;
76631;SDS011;65526;48.578;-4.520;2023-02-19T15:05:23;1.75;;;0.60;;
76631;SDS011;65526;48.578;-4.520;2023-02-19T15:07:52;0.45;;;0.10;;
76631;SDS011;65526;48.578;-4.520;2023-02-19T15:12:55;1.58;;;0.40;;
76631;SDS011;65526;48.578;-4.520;2023-02-19T15:15:24;1.00;;;0.20;;
76631;SDS011;65526;48.578;-4.520;2023-02-19T15:17:54;0.20;;;0.20;;
76631;SDS011;65526;48.578;-4.520;2023-02-19T15:20:23;1.23;;;0.70;;
76631;SDS011;65526;48.578;-4.520;2023-02-19T15:22:52;1.77;;;0.50;;
76631;SDS011;65526;48.578;-4.520;2023-02-19T15:25:20;0.82;;;0.63;;
76631;SDS011;65526;48.578;-4.520;2023-02-19T15:27:48;0.52;;;0.50;;
76631;SDS011;65526;48.578;-4.520;2023-02-19T15:30:18;1.38;;;0.60;;
76631;SDS011;65526;48.578;-4.520;2023-02-19T15:32:54;0.20;;;0.20;;
76631;SDS011;65526;48.578;-4.520;2023-02-19T15:35:22;0.30;;;0.30;;
76631;SDS011;65526;48.578;-4.520;2023-02-19T15:37:53;1.58;;;0.40;;
76631;SDS011;65526;48.578;-4.520;2023-02-19T15:40:22;0.55;;;0.35;;
76631;SDS011;65526;48.578;-4.520;2023-02-19T15:42:54;1.75;;;0.20;;
76631;SDS011;65526;48.578;-4.520;2023-02-19T15:45:22;1.73;;;0.30;;
76631;SDS011;65526;48.578;-4.520;2023-02-19T15:47:56;0.52;;;0.28;;
76631;SDS011;65526;48.578;-4.520;2023-02-19T15:50:33;1.23;;;0.25;;
76631;SDS011;65526;48.578;-4.520;2023-02-19T15:55:52;1.17;;;0.20;;
76631;SDS011;65526;48.578;-4.520;2023-02-19T16:01:22;2.00;;;0.30;;
76631;SDS011;65526;48.578;-4.520;2023-02-19T16:03:51;0.22;;;0.22;;
76631;SDS011;65526;48.578;-4.520;2023-02-19T16:06:19;1.17;;;0.30;;
76631;SDS011;65526;48.578;-4.520;2023-02-19T16:09:02;2.50;;;0.60;;
76631;SDS011;65526;48.578;-4.520;2023-02-19T16:11:37;0.57;;;0.45;;
76631;SDS011;65526;48.578;-4.520;2023-02-19T16:45:56;0.30;;;0.20;;
76631;SDS011;65526;48.578;-4.520;2023-02-19T16:48:24;0.30;;;0.20;;
76631;SDS011;65526;48.578;-4.520;2023-02-19T16:50:50;1.15;;;0.30;;
76631;SDS011;65526;48.578;-4.520;2023-02-19T16:53:18;0.35;;;0.30;;
76631;SDS011;65526;48.578;-4.520;2023-02-19T16:55:46;2.63;;;0.60;;
76631;SDS011;65526;48.578;-4.520;2023-02-19T16:58:13;0.28;;;0.28;;
76631;SDS011;65526;48.578;-4.520;2023-02-19T17:00:39;0.68;;;0.30;;
76631;SDS011;65526;48.578;-4.520;2023-02-19T17:03:09;0.40;;;0.30;;
76631;SDS011;65526;48.578;-4.520;2023-02-19T17:05:38;0.47;;;0.47;;
76631;SDS011;65526;48.578;-4.520;2023-02-19T17:08:19;0.40;;;0.40;;
76631;SDS011;65526;48.578;-4.520;2023-02-19T17:11:11;0.95;;;0.70;;
76631;SDS011;65526;48.578;-4.520;2023-02-19T17:13:39;0.50;;;0.50;;
76631;SDS011;65526;48.578;-4.520;2023-02-19T17:16:08;0.85;;;0.40;;
76631;SDS011;65526;48.578;-4.520;2023-02-19T17:18:42;1.20;;;0.45;;
76631;SDS011;65526;48.578;-4.520;2023-02-19T17:21:11;1.48;;;0.40;;
76631;SDS011;65526;48.578;-4.520;2023-02-19T17:23:44;1.00;;;0.70;;